Flight Track Log - Related Links

Times and Time Zones

All times are in EDT time to prevent confusion due to time zone crossing. See the SWA709 flight status page for this flight to view local times or setup timezone preferences in your user account.

Time Position Orientation Groundspeed Altitude Reporting Facility
EDT Latitude Longitude Course Direction KTS MPH feet Rate Location/Type
Mon 10:56:16 AM 36.0767 -115.1783 291° West 165 190 3,400  Level Los Angeles Center
Mon 10:57:08 AM 36.0661 -115.2514 260° West 233 268 5,400 1,912 Climbing Los Angeles Center
Mon 10:58:09 AM 35.9967 -115.2900 204° Southwest 288 331 7,000 2,391 Climbing Los Angeles Center
Mon 10:59:21 AM 35.9325 -115.3497 217° Southwest 282 325 10,700 3,090 Climbing Los Angeles Center
Mon 11:00:23 AM 35.8881 -115.4625 244° Southwest 315 362 13,900 3,145 Climbing Los Angeles Center
Mon 11:01:25 AM 35.9369 -115.5564 303° West 333 383 17,200 3,171 Climbing Los Angeles Center
Mon 11:02:26 AM 35.9933 -115.6636 303° West 348 400 20,400 2,976 Climbing Los Angeles Center
Mon 11:03:28 AM 36.0489 -115.7686 303° West 364 419 23,300 2,565 Climbing Los Angeles Center
Mon 11:04:30 AM 36.1056 -115.8717 304° West 367 422 25,700 2,226 Climbing Los Angeles Center
Mon 11:05:32 AM 36.1619 -115.9836 302° West 376 433 27,900 1,887 Climbing Los Angeles Center
Mon 11:06:34 AM 36.1944 -116.1164 287° West 396 456 29,600 1,935 Climbing Los Angeles Center
Mon 11:07:36 AM 36.2308 -116.2553 288° West 400 460 31,900 1,171 Climbing Los Angeles Center
Mon 11:08:37 AM 36.2653 -116.3886 288° West 405 466 32,000 49 Climbing Los Angeles Center
Mon 11:09:39 AM 36.3011 -116.5269 288° West 417 480 32,000  Level Los Angeles Center
Mon 11:10:41 AM 36.3356 -116.6636 287° West 419 482 32,000  Level Los Angeles Center
Mon 11:11:43 AM 36.3789 -116.8306 288° West 423 487 32,000  Level Los Angeles Center
Mon 11:12:45 AM 36.4133 -116.9703 287° West 427 491 32,000  Level Los Angeles Center
Mon 11:13:47 AM 36.4483 -117.1072 288° West 421 484 32,000  Level Los Angeles Center
Mon 11:14:49 AM 36.4836 -117.2458 288° West 422 486 32,000  Level Los Angeles Center
Mon 11:15:51 AM 36.5181 -117.3864 287° West 425 489 32,000  Level Los Angeles Center
Mon 11:16:53 AM 36.5531 -117.5269 287° West 427 491 32,000  Level Los Angeles Center
Mon 11:17:55 AM 36.5950 -117.6981 287° West 430 495 32,000  Level Los Angeles Center
Mon 11:18:57 AM 36.6300 -117.8408 287° West 432 497 32,000  Level Los Angeles Center
Mon 11:19:59 AM 36.6644 -117.9839 287° West 432 497 32,000  Level Los Angeles Center
Mon 11:21:01 AM 36.6992 -118.1253 287° West 432 497 32,000  Level Los Angeles Center
Mon 11:22:03 AM 36.7322 -118.2658 286° West 429 494 32,000  Level Los Angeles Center
Mon 11:23:06 AM 36.7725 -118.4328 287° West 423 487 32,000  Level Los Angeles Center
Mon 11:23:25 AM 36.7797 -118.4675 285° West 425 489 32,000  Level Oakland Center
Mon 11:24:26 AM 36.8158 -118.6208 286° West 416 479 32,000 -390 Level Oakland Center
Mon 11:25:28 AM 36.8481 -118.7639 286° West 428 493 31,200 -878 Descending Oakland Center
Mon 11:26:29 AM 36.8864 -118.9122 288° West 451 519 30,200 -984 Descending Oakland Center
Mon 11:27:30 AM 36.9172 -119.0547 285° West 430 495 29,200 -984 Descending Oakland Center
Mon 11:28:31 AM 36.9508 -119.1972 286° West 431 496 28,200 -984 Descending Oakland Center
Mon 11:29:32 AM 36.9822 -119.3339 286° West 412 474 27,200 -984 Descending Oakland Center
Mon 11:30:33 AM 37.0125 -119.4697 286° West 406 467 26,200 -1,024 Descending Oakland Center
Mon 11:31:35 AM 37.0417 -119.6031 285° West 399 459 25,100 -1,122 Descending Oakland Center
Mon 11:32:36 AM 37.0769 -119.7617 286° West 395 455 23,900 -1,033 Descending Oakland Center
Mon 11:33:37 AM 37.1014 -119.8761 285° West 374 430 23,000 -934 Descending Oakland Center
Mon 11:34:38 AM 37.1308 -120.0058 286° West 385 443 22,000 -976 Descending Oakland Center
Mon 11:35:40 AM 37.1594 -120.1344 286° West 377 434 21,000 -976 Descending Oakland Center
Mon 11:36:41 AM 37.1867 -120.2647 285° West 380 437 20,000 -1,082 Descending Oakland Center
Mon 11:37:42 AM 37.2136 -120.3839 286° West 353 406 18,800 -1,900 Descending Oakland Center
Mon 11:38:41 AM 37.2000 -120.5167 263° West 401 461 16,200 -2,370 Descending Northern Cal TRACON
Mon 11:39:41 AM 37.1667 -120.6333 250° West 337 388 14,100 -2,050 Descending Northern Cal TRACON
Mon 11:40:41 AM 37.1500 -120.7500 260° West 338 389 12,100 -1,650 Descending Northern Cal TRACON
Mon 11:41:41 AM 37.1167 -120.8667 250° West 335 386 10,800 -1,158 Descending Northern Cal TRACON
Mon 11:42:35 AM 37.1000 -120.9667 258° West 335 386 9,900 -400 Descending Northern Cal TRACON
Mon 11:43:41 AM 37.0667 -121.0833 250° West 330 380 10,000 50 Climbing Northern Cal TRACON
Mon 11:44:35 AM 37.0500 -121.1833 258° West 332 382 10,000 -86 Level Northern Cal TRACON
Mon 11:44:51 AM 37.0467 -121.1936 248° West 331 381 9,900 -156 Descending Oakland Center
Mon 11:45:52 AM 37.0211 -121.3053 254° West 334 384 9,800 -639 Descending Oakland Center
Mon 11:46:53 AM 37.0236 -121.4264 272° West 287 330 8,600 -1,377 Descending Oakland Center
Mon 11:47:54 AM 37.0383 -121.5228 281° West 283 326 7,000 -1,463 Descending Oakland Center
Mon 11:48:56 AM 37.0722 -121.6031 298° West 273 314 5,600 -829 Descending Oakland Center
Mon 11:49:57 AM 37.1250 -121.6642 317° Northwest 260 299 5,300 -393 Descending Oakland Center
Mon 11:50:58 AM 37.1683 -121.7203 314° West 240 276 4,800 -780 Descending Oakland Center
Mon 11:52:00 AM 37.2097 -121.7661 319° Northwest 216 249 3,700 -1,024 Descending Oakland Center
Mon 11:53:01 AM 37.2497 -121.8092 319° Northwest 202 232 2,700 -885 Descending Oakland Center
Mon 11:54:02 AM 37.2883 -121.8475 322° Northwest 189 217 1,900 -787 Descending Oakland Center
Mon 11:55:03 AM 37.3178 -121.8778 321° Northwest 160 184 1,100 -829 Descending Oakland Center
Mon 11:56:05 AM 37.3514 -121.9147 319° Northwest 141 162 200 -871 Descending Oakland Center
Mon 11:58:00 AM 37.3500 -121.9167 North  Level FlightAware Approximate

Login

Don't have an account? Register now (free) for customized features, flight alerts, and more!